createdAt,value
2018-09-22T00:01:08.662Z,13.46
2018-09-22T00:03:36.894Z,13.30
2018-09-22T00:06:05.078Z,13.44
2018-09-22T00:08:33.237Z,13.41
2018-09-22T00:11:01.447Z,13.43
2018-09-22T00:13:29.725Z,13.48
2018-09-22T00:15:57.973Z,13.44
2018-09-22T00:18:26.125Z,13.47
2018-09-22T00:20:54.314Z,13.44
2018-09-22T00:23:22.489Z,13.41
2018-09-22T00:25:50.967Z,13.40
2018-09-22T00:28:19.147Z,13.36
2018-09-22T00:30:47.609Z,13.44
2018-09-22T00:33:15.784Z,13.33
2018-09-22T00:35:43.961Z,13.33
2018-09-22T00:38:12.245Z,13.30
2018-09-22T00:40:40.425Z,13.30
2018-09-22T00:43:08.669Z,13.23
2018-09-22T00:45:36.870Z,13.30
2018-09-22T00:48:05.039Z,13.23
2018-09-22T00:50:33.350Z,13.19
2018-09-22T00:53:01.520Z,13.10
2018-09-22T00:55:29.775Z,13.16
2018-09-22T00:57:58.017Z,13.03
2018-09-22T01:00:26.219Z,13.03
2018-09-22T01:02:54.397Z,13.02
2018-09-22T01:05:22.586Z,12.99
2018-09-22T01:07:50.794Z,12.97
2018-09-22T01:10:19.219Z,13.00
2018-09-22T01:12:47.419Z,13.02
2018-09-22T01:15:15.588Z,13.06
2018-09-22T01:17:43.759Z,12.99
2018-09-22T01:20:11.941Z,13.07
2018-09-22T01:22:40.113Z,13.03
2018-09-22T01:25:08.293Z,13.03
2018-09-22T01:27:36.661Z,13.04
2018-09-22T01:30:04.913Z,13.04
2018-09-22T01:32:33.081Z,13.00
2018-09-22T01:35:01.261Z,13.02
2018-09-22T01:37:29.435Z,12.98
2018-09-22T01:39:57.613Z,12.95
2018-09-22T01:42:25.805Z,12.95
2018-09-22T01:44:53.972Z,12.92
2018-09-22T01:47:22.140Z,12.98
2018-09-22T01:49:50.322Z,12.94
2018-09-22T01:52:18.612Z,12.94
2018-09-22T01:54:46.784Z,12.96
2018-09-22T01:57:15.070Z,12.85
2018-09-22T01:59:43.258Z,12.81
2018-09-22T02:02:11.698Z,12.86
2018-09-22T02:04:39.988Z,12.82
2018-09-22T02:07:08.168Z,12.72
2018-09-22T02:09:36.345Z,12.65
2018-09-22T02:12:04.613Z,12.60
2018-09-22T02:14:32.770Z,12.58
2018-09-22T02:17:01.242Z,12.63
2018-09-22T02:19:29.440Z,12.52
2018-09-22T02:21:57.605Z,12.44
2018-09-22T02:24:25.873Z,12.53
2018-09-22T02:26:54.062Z,12.53
2018-09-22T02:29:22.227Z,12.49
2018-09-22T02:31:50.396Z,12.45
2018-09-22T02:34:18.589Z,12.48
2018-09-22T02:36:46.816Z,12.49
2018-09-22T02:39:15.033Z,12.38
2018-09-22T02:41:43.214Z,12.44
2018-09-22T02:44:11.471Z,12.41
2018-09-22T02:46:39.633Z,12.33
2018-09-22T02:49:07.824Z,12.36
2018-09-22T02:51:35.990Z,12.29
2018-09-22T02:54:04.274Z,12.30
2018-09-22T02:56:32.484Z,12.36
2018-09-22T02:59:01.474Z,12.26
2018-09-22T03:01:29.729Z,12.25
2018-09-22T03:03:57.926Z,12.22
2018-09-22T03:06:26.173Z,12.17
2018-09-22T03:08:54.524Z,12.07
2018-09-22T03:11:22.734Z,11.99
2018-09-22T03:13:50.918Z,12.07
2018-09-22T03:16:19.099Z,12.03
2018-09-22T03:18:47.590Z,11.95
2018-09-22T03:21:15.774Z,11.92
2018-09-22T03:23:43.940Z,11.79
2018-09-22T03:26:12.123Z,11.70
2018-09-22T03:28:40.289Z,11.64
2018-09-22T03:31:08.656Z,11.57
2018-09-22T03:33:36.853Z,11.47
2018-09-22T03:36:05.049Z,11.45
2018-09-22T03:38:33.246Z,11.46
2018-09-22T03:41:01.477Z,11.44
2018-09-22T03:43:29.628Z,11.45
2018-09-22T03:45:57.861Z,11.41
2018-09-22T03:48:26.107Z,11.32
2018-09-22T03:50:54.325Z,11.39
2018-09-22T03:53:22.645Z,11.38
2018-09-22T03:55:57.297Z,11.33
2018-09-22T03:58:25.720Z,11.37
2018-09-22T04:00:53.900Z,11.34
2018-09-22T04:03:22.085Z,11.40
2018-09-22T04:05:50.328Z,11.39
2018-09-22T04:08:18.510Z,11.36
2018-09-22T04:10:46.694Z,11.34
2018-09-22T04:13:14.880Z,11.31
2018-09-22T04:15:43.046Z,11.21
2018-09-22T04:18:11.301Z,11.19
2018-09-22T04:20:42.534Z,11.18
2018-09-22T04:23:10.730Z,11.08
2018-09-22T04:25:39.163Z,11.01
2018-09-22T04:28:07.561Z,11.06
2018-09-22T04:30:35.761Z,11.06
2018-09-22T04:33:03.938Z,11.10
2018-09-22T04:35:32.112Z,10.97
2018-09-22T04:38:00.389Z,11.05
2018-09-22T04:40:28.580Z,11.06
2018-09-22T04:42:56.749Z,10.99
2018-09-22T04:45:24.929Z,10.94
2018-09-22T04:47:53.175Z,10.96
2018-09-22T04:50:21.345Z,10.97
2018-09-22T04:52:49.536Z,10.97
2018-09-22T04:55:17.693Z,10.91
2018-09-22T04:57:45.925Z,10.88
2018-09-22T05:00:14.297Z,10.91
2018-09-22T05:02:42.467Z,10.95
2018-09-22T05:05:10.816Z,10.96
2018-09-22T05:07:39.090Z,10.91
2018-09-22T05:10:07.290Z,10.82
2018-09-22T05:12:35.520Z,10.90
2018-09-22T05:15:03.762Z,10.87
2018-09-22T05:17:32.514Z,10.98
2018-09-22T05:20:00.748Z,11.05
2018-09-22T05:22:28.954Z,11.02
2018-09-22T05:24:57.118Z,10.98
2018-09-22T05:27:25.666Z,11.10
2018-09-22T05:29:53.878Z,11.11
2018-09-22T05:32:22.146Z,11.21
2018-09-22T05:34:50.321Z,11.25
2018-09-22T05:37:18.508Z,11.36
2018-09-22T05:39:46.934Z,11.33
2018-09-22T05:42:15.105Z,11.42
2018-09-22T05:44:43.345Z,11.39
2018-09-22T05:47:11.593Z,11.51
2018-09-22T05:49:39.772Z,11.65
2018-09-22T05:52:07.949Z,11.69
2018-09-22T05:54:36.108Z,11.76
2018-09-22T05:57:04.342Z,11.71
2018-09-22T05:59:32.545Z,11.86
2018-09-22T06:02:00.754Z,11.90
2018-09-22T06:04:28.922Z,11.90
2018-09-22T06:06:57.348Z,11.81
2018-09-22T06:09:25.677Z,12.00
2018-09-22T06:11:53.848Z,11.91
2018-09-22T06:14:22.036Z,12.02
2018-09-22T06:16:50.360Z,12.14
2018-09-22T06:19:18.600Z,12.13
2018-09-22T06:21:46.792Z,12.44
2018-09-22T06:24:14.963Z,12.55
2018-09-22T06:26:43.145Z,12.48
2018-09-22T06:29:11.519Z,12.69
2018-09-22T06:31:39.706Z,12.98
2018-09-22T06:34:07.874Z,12.86
2018-09-22T06:36:36.045Z,12.89
2018-09-22T06:39:05.897Z,13.02
2018-09-22T06:41:34.082Z,13.39
2018-09-22T06:44:02.276Z,13.50
2018-09-22T06:46:30.601Z,13.46
2018-09-22T06:48:58.821Z,13.61
2018-09-22T06:51:27.011Z,13.48
2018-09-22T06:53:55.269Z,13.57
2018-09-22T06:56:23.541Z,13.65
2018-09-22T06:58:51.761Z,13.77
2018-09-22T07:01:19.991Z,13.95
2018-09-22T07:03:48.153Z,13.84
2018-09-22T07:06:16.388Z,14.66
2018-09-22T07:08:44.516Z,14.86
2018-09-22T07:11:12.690Z,14.27
2018-09-22T07:13:40.936Z,14.07
2018-09-22T07:16:09.358Z,14.50
2018-09-22T07:18:37.527Z,14.48
2018-09-22T07:21:08.026Z,14.80
2018-09-22T07:23:36.376Z,14.17
2018-09-22T07:26:04.862Z,14.07
2018-09-22T07:28:33.414Z,14.37
2018-09-22T07:31:01.747Z,14.31
2018-09-22T07:33:29.921Z,14.40
2018-09-22T07:35:58.096Z,14.88
2018-09-22T07:38:26.260Z,14.63
2018-09-22T07:40:54.477Z,14.61
2018-09-22T07:43:22.665Z,14.98
2018-09-22T07:45:50.911Z,15.22
2018-09-22T07:48:19.077Z,15.13
2018-09-22T07:50:47.289Z,15.54
2018-09-22T07:53:15.690Z,15.34
2018-09-22T07:55:43.933Z,15.12
2018-09-22T07:58:12.209Z,15.61
2018-09-22T08:00:40.463Z,15.62
2018-09-22T08:03:08.641Z,15.70
2018-09-22T08:05:36.806Z,15.83
2018-09-22T08:08:04.973Z,15.74
2018-09-22T08:10:33.333Z,15.46
2018-09-22T08:13:01.509Z,15.27
2018-09-22T08:15:29.717Z,16.07
2018-09-22T08:17:57.893Z,15.94
2018-09-22T08:20:26.073Z,15.57
2018-09-22T08:22:54.258Z,16.06
2018-09-22T08:25:22.559Z,16.25
2018-09-22T08:27:50.855Z,16.23
2018-09-22T08:30:19.078Z,16.18
2018-09-22T08:32:47.528Z,16.03
2018-09-22T08:35:15.716Z,16.03
2018-09-22T08:37:43.904Z,15.72
2018-09-22T08:40:12.174Z,16.33
2018-09-22T08:42:40.406Z,15.95
2018-09-22T08:45:08.570Z,16.33
2018-09-22T08:47:37.645Z,16.11
2018-09-22T08:50:05.869Z,16.50
2018-09-22T08:52:34.030Z,16.52
2018-09-22T08:55:02.200Z,16.44
2018-09-22T08:57:30.738Z,16.17
2018-09-22T08:59:59.002Z,16.72
2018-09-22T09:02:27.181Z,16.62
2018-09-22T09:04:55.712Z,16.36
2018-09-22T09:07:23.925Z,16.57
2018-09-22T09:09:52.586Z,16.23
2018-09-22T09:12:21.054Z,16.03
2018-09-22T09:14:49.234Z,16.86
2018-09-22T09:17:17.456Z,16.72
2018-09-22T09:19:45.775Z,17.00
2018-09-22T09:22:14.220Z,16.83
2018-09-22T09:24:42.481Z,16.75
2018-09-22T09:27:12.411Z,16.87
2018-09-22T09:29:40.675Z,17.22
2018-09-22T09:32:08.899Z,16.59
2018-09-22T09:34:37.189Z,17.04
2018-09-22T09:37:05.659Z,17.66
2018-09-22T09:39:33.841Z,17.58
2018-09-22T09:42:02.227Z,17.16
2018-09-22T09:44:30.456Z,17.89
2018-09-22T09:46:58.699Z,17.53
2018-09-22T09:49:26.878Z,17.56
2018-09-22T09:51:55.090Z,17.07
2018-09-22T09:54:23.454Z,17.41
2018-09-22T09:56:52.208Z,17.29
2018-09-22T09:59:20.396Z,17.48
2018-09-22T10:01:48.681Z,18.08
2018-09-22T10:04:16.868Z,18.17
2018-09-22T10:06:45.031Z,17.87
2018-09-22T10:09:13.218Z,17.62
2018-09-22T10:11:41.472Z,18.34
2018-09-22T10:14:09.601Z,18.63
2018-09-22T10:16:37.917Z,18.90
2018-09-22T10:19:06.213Z,17.92
2018-09-22T10:21:34.403Z,18.48
2018-09-22T10:24:02.656Z,18.41
2018-09-22T10:26:30.932Z,18.81
2018-09-22T10:28:59.297Z,18.71
2018-09-22T10:31:27.505Z,19.17
2018-09-22T10:33:55.730Z,18.63
2018-09-22T10:36:23.960Z,18.87
2018-09-22T10:38:52.162Z,17.48
2018-09-22T10:41:20.518Z,19.17
2018-09-22T10:43:48.720Z,19.46
2018-09-22T10:46:16.909Z,19.88
2018-09-22T10:48:45.272Z,21.13
2018-09-22T10:51:13.479Z,20.73
2018-09-22T10:53:41.774Z,20.33
2018-09-22T10:56:10.146Z,20.46
2018-09-22T10:58:38.448Z,21.41
2018-09-22T11:01:06.869Z,21.05
2018-09-22T11:03:35.074Z,21.55
2018-09-22T11:06:03.353Z,21.42
2018-09-22T11:08:31.704Z,21.54
2018-09-22T11:10:59.899Z,21.52
2018-09-22T11:13:28.074Z,22.19
2018-09-22T11:15:56.323Z,21.17
2018-09-22T11:18:24.533Z,23.35
2018-09-22T11:20:52.829Z,21.73
2018-09-22T11:23:21.097Z,25.26
2018-09-22T11:25:49.377Z,23.82
2018-09-22T11:28:17.753Z,22.60
2018-09-22T11:30:46.023Z,23.48
2018-09-22T11:33:14.801Z,23.90
2018-09-22T11:35:43.161Z,22.74
2018-09-22T11:38:11.356Z,23.58
2018-09-22T11:40:39.679Z,22.94
2018-09-22T11:43:07.882Z,23.42
2018-09-22T11:45:36.051Z,24.82
2018-09-22T11:48:04.260Z,26.47
2018-09-22T11:50:32.517Z,25.26
2018-09-22T11:53:00.796Z,26.53
2018-09-22T11:55:29.065Z,24.72
2018-09-22T11:57:57.342Z,24.81
2018-09-22T12:00:25.617Z,24.95
2018-09-22T12:02:53.900Z,24.76
2018-09-22T12:05:22.182Z,25.18
2018-09-22T12:07:50.451Z,23.05
2018-09-22T12:10:18.713Z,25.85
2018-09-22T12:12:46.900Z,26.15
2018-09-22T12:15:15.170Z,25.24
2018-09-22T12:17:43.470Z,23.77
2018-09-22T12:20:11.702Z,24.36
2018-09-22T12:22:39.898Z,24.31
2018-09-22T12:25:08.089Z,25.70
2018-09-22T12:27:36.585Z,25.00
2018-09-22T12:30:04.777Z,25.23
2018-09-22T12:32:32.965Z,25.88
2018-09-22T12:35:01.156Z,26.74
2018-09-22T12:37:29.348Z,23.72
2018-09-22T12:39:57.567Z,24.98
2018-09-22T12:42:25.801Z,23.98
2018-09-22T12:44:54.011Z,23.73
2018-09-22T12:47:22.257Z,21.91
2018-09-22T12:49:50.447Z,24.76
2018-09-22T12:52:18.707Z,22.57
2018-09-22T12:54:47.008Z,22.93
2018-09-22T12:57:15.172Z,26.32
2018-09-22T12:59:43.428Z,23.88
2018-09-22T13:02:12.037Z,23.66
2018-09-22T13:04:40.296Z,27.01
2018-09-22T13:07:08.600Z,26.06
2018-09-22T13:09:37.071Z,27.38
2018-09-22T13:12:05.476Z,25.82
2018-09-22T13:14:33.657Z,28.07
2018-09-22T13:17:01.902Z,27.40
2018-09-22T13:19:30.198Z,29.76
2018-09-22T13:21:58.427Z,29.85
2018-09-22T13:24:26.625Z,34.31
2018-09-22T13:26:55.289Z,29.06
2018-09-22T13:29:23.458Z,29.30
2018-09-22T13:31:51.760Z,28.86
2018-09-22T13:34:20.031Z,27.62
2018-09-22T13:36:48.222Z,29.28
2018-09-22T13:39:16.500Z,25.96
2018-09-22T13:41:44.710Z,24.58
2018-09-22T13:44:12.894Z,24.36
2018-09-22T13:46:41.259Z,24.84
2018-09-22T13:49:09.467Z,25.46
2018-09-22T13:51:37.679Z,25.93
2018-09-22T13:54:05.941Z,25.66
2018-09-22T13:56:34.203Z,24.79
2018-09-22T13:59:02.429Z,25.07
2018-09-22T14:01:30.660Z,24.80
2018-09-22T14:03:58.879Z,24.99
2018-09-22T14:06:27.434Z,22.91
2018-09-22T14:08:55.641Z,23.85
2018-09-22T14:11:23.848Z,24.44
2018-09-22T14:13:52.033Z,22.76
2018-09-22T14:16:20.328Z,25.66
2018-09-22T14:18:48.554Z,24.75
2018-09-22T14:21:17.119Z,23.36
2018-09-22T14:23:45.330Z,23.47
2018-09-22T14:26:13.624Z,24.63
2018-09-22T14:28:41.893Z,22.01
2018-09-22T14:31:10.321Z,24.37
2018-09-22T14:33:38.537Z,23.40
2018-09-22T14:36:06.740Z,25.31
2018-09-22T14:38:34.945Z,24.44
2018-09-22T14:41:03.169Z,24.18
2018-09-22T14:43:31.469Z,22.14
2018-09-22T14:45:59.713Z,22.26
2018-09-22T14:48:28.001Z,22.07
2018-09-22T14:50:56.205Z,21.54
2018-09-22T14:53:24.395Z,21.85
2018-09-22T14:55:52.759Z,20.69
2018-09-22T14:58:20.931Z,20.95
2018-09-22T15:00:49.281Z,21.26
2018-09-22T15:03:17.465Z,21.24
2018-09-22T15:05:45.657Z,20.51
2018-09-22T15:08:13.867Z,21.05
2018-09-22T15:10:42.063Z,20.98
2018-09-22T15:13:10.499Z,21.47
2018-09-22T15:15:38.876Z,20.72
2018-09-22T15:18:07.057Z,19.89
2018-09-22T15:20:35.278Z,20.56
2018-09-22T15:23:03.552Z,21.00
2018-09-22T15:25:31.824Z,21.01
2018-09-22T15:27:59.987Z,20.95
2018-09-22T15:30:28.390Z,20.74
2018-09-22T15:32:56.502Z,20.73
2018-09-22T15:35:24.678Z,20.11
2018-09-22T15:37:53.121Z,20.43
2018-09-22T15:40:21.307Z,19.89
2018-09-22T15:42:49.576Z,19.53
2018-09-22T15:45:17.854Z,18.83
2018-09-22T15:47:46.234Z,18.98
2018-09-22T15:50:14.419Z,18.62
2018-09-22T15:52:42.593Z,18.86
2018-09-22T15:55:11.063Z,18.46
2018-09-22T15:57:39.461Z,18.43
2018-09-22T16:00:08.157Z,18.68
2018-09-22T16:02:36.670Z,19.06
2018-09-22T16:05:04.837Z,18.26
2018-09-22T16:07:33.055Z,18.08
2018-09-22T16:10:01.241Z,18.11
2018-09-22T16:12:29.460Z,17.86
2018-09-22T16:14:57.681Z,17.90
2018-09-22T16:17:25.873Z,17.63
2018-09-22T16:19:54.119Z,17.63
2018-09-22T16:22:22.401Z,17.77
2018-09-22T16:24:50.717Z,17.73
2018-09-22T16:27:19.535Z,17.75
2018-09-22T16:29:47.745Z,17.76
2018-09-22T16:32:16.004Z,17.64
2018-09-22T16:34:44.279Z,17.54
2018-09-22T16:37:12.588Z,17.30
2018-09-22T16:39:40.779Z,17.31
2018-09-22T16:42:09.006Z,17.28
2018-09-22T16:44:37.202Z,17.06
2018-09-22T16:47:05.668Z,17.14
2018-09-22T16:49:33.910Z,17.27
2018-09-22T16:52:02.047Z,17.11
2018-09-22T16:54:30.288Z,17.06
2018-09-22T16:56:58.450Z,16.89
2018-09-22T16:59:26.743Z,16.73
2018-09-22T17:01:54.935Z,16.86
2018-09-22T17:04:23.191Z,16.78
2018-09-22T17:06:58.101Z,16.58
2018-09-22T17:09:26.343Z,16.58
2018-09-22T17:11:54.469Z,16.54
2018-09-22T17:14:22.661Z,16.51
2018-09-22T17:16:50.855Z,16.42
2018-09-22T17:19:19.534Z,16.29
2018-09-22T17:21:48.029Z,16.37
2018-09-22T17:24:16.259Z,16.41
2018-09-22T17:26:44.536Z,16.37
2018-09-22T17:29:13.128Z,16.33
2018-09-22T17:31:41.405Z,16.35
2018-09-22T17:34:09.681Z,16.53
2018-09-22T17:36:37.952Z,16.47
2018-09-22T17:39:08.068Z,16.39
2018-09-22T17:41:36.259Z,16.39
2018-09-22T17:44:04.838Z,16.49
2018-09-22T17:46:33.010Z,16.33
2018-09-22T17:49:01.202Z,16.18
2018-09-22T17:51:29.658Z,16.17
2018-09-22T17:53:57.936Z,16.06
2018-09-22T17:56:26.191Z,15.97
2018-09-22T17:58:54.413Z,15.99
2018-09-22T18:01:22.688Z,15.99
2018-09-22T18:03:50.919Z,15.96
2018-09-22T18:06:19.281Z,15.97
2018-09-22T18:08:47.502Z,15.91
2018-09-22T18:11:15.902Z,15.91
2018-09-22T18:13:44.113Z,15.84
2018-09-22T18:16:12.587Z,15.77
2018-09-22T18:18:40.789Z,15.75
2018-09-22T18:21:09.049Z,15.74
2018-09-22T18:23:37.250Z,15.71
2018-09-22T18:26:05.439Z,15.54
2018-09-22T18:28:33.649Z,15.56
2018-09-22T18:31:01.864Z,15.52
2018-09-22T18:33:30.077Z,15.51
2018-09-22T18:35:58.269Z,15.55
2018-09-22T18:38:26.443Z,15.45
2018-09-22T18:40:54.629Z,15.44
2018-09-22T18:43:22.946Z,15.43
2018-09-22T18:45:51.126Z,15.41
2018-09-22T18:48:19.380Z,15.42
2018-09-22T18:50:47.612Z,15.42
2018-09-22T18:53:15.844Z,15.43
2018-09-22T18:55:44.140Z,15.11
2018-09-22T18:58:12.322Z,15.15
2018-09-22T19:00:40.498Z,15.20
2018-09-22T19:03:08.772Z,15.20
2018-09-22T19:05:37.062Z,15.25
2018-09-22T19:08:05.460Z,15.30
2018-09-22T19:10:33.657Z,15.19
2018-09-22T19:13:02.957Z,15.21
2018-09-22T19:15:45.446Z,15.24
2018-09-22T19:18:18.759Z,15.18
2018-09-22T19:21:23.970Z,15.23
2018-09-22T19:23:56.433Z,15.14
2018-09-22T19:26:43.861Z,15.22
2018-09-22T19:29:15.440Z,15.21
2018-09-22T19:31:47.029Z,15.12
2018-09-22T19:34:24.801Z,15.09
2018-09-22T19:36:59.106Z,15.18
2018-09-22T19:39:32.000Z,15.13
2018-09-22T19:42:05.461Z,15.16
2018-09-22T19:44:55.330Z,15.11
2018-09-22T19:47:32.136Z,15.11
2018-09-22T19:50:02.688Z,15.13
2018-09-22T19:53:01.574Z,15.14
2018-09-22T19:55:29.810Z,15.16
2018-09-22T19:57:58.071Z,15.14
2018-09-22T20:00:26.208Z,15.07
2018-09-22T20:02:54.515Z,14.96
2018-09-22T20:05:22.778Z,14.85
2018-09-22T20:07:50.953Z,14.80
2018-09-22T20:10:19.237Z,14.63
2018-09-22T20:12:47.481Z,14.68
2018-09-22T20:15:15.701Z,14.49
2018-09-22T20:17:43.968Z,14.47
2018-09-22T20:20:12.421Z,14.42
2018-09-22T20:22:40.606Z,14.40
2018-09-22T20:25:08.812Z,14.33
2018-09-22T20:27:37.049Z,14.33
2018-09-22T20:30:05.324Z,14.79
2018-09-22T20:32:33.618Z,14.82
2018-09-22T20:35:01.812Z,14.45
2018-09-22T20:37:29.995Z,14.36
2018-09-22T20:39:58.272Z,14.39
2018-09-22T20:42:26.511Z,14.45
2018-09-22T20:44:54.695Z,14.32
2018-09-22T20:47:23.017Z,14.42
2018-09-22T20:49:51.236Z,14.35
2018-09-22T20:52:19.724Z,14.23
2018-09-22T20:54:48.156Z,14.16
2018-09-22T20:57:16.367Z,14.41
2018-09-22T20:59:44.598Z,14.47
2018-09-22T21:02:12.847Z,14.36
2018-09-22T21:04:41.782Z,14.39
2018-09-22T21:07:09.977Z,14.27
2018-09-22T21:09:38.308Z,14.31
2018-09-22T21:12:06.474Z,14.35
2018-09-22T21:14:34.809Z,14.43
2018-09-22T21:17:03.570Z,14.43
2018-09-22T21:19:31.761Z,14.35
2018-09-22T21:22:00.320Z,14.26
2018-09-22T21:24:28.659Z,14.38
2018-09-22T21:26:56.848Z,14.38
2018-09-22T21:29:25.071Z,14.25
2018-09-22T21:31:53.369Z,14.34
2018-09-22T21:34:21.651Z,14.38
2018-09-22T21:36:49.887Z,14.32
2018-09-22T21:39:18.074Z,14.13
2018-09-22T21:41:46.368Z,14.08
2018-09-22T21:44:14.571Z,14.06
2018-09-22T21:46:42.970Z,14.03
2018-09-22T21:49:11.146Z,14.09
2018-09-22T21:51:39.333Z,13.93
2018-09-22T21:54:07.541Z,13.92
2018-09-22T21:56:35.720Z,13.90
2018-09-22T21:59:04.000Z,13.87
2018-09-22T22:01:38.357Z,13.81
2018-09-22T22:04:07.026Z,13.92
2018-09-22T22:06:35.346Z,13.79
2018-09-22T22:09:05.146Z,13.80
2018-09-22T22:11:33.503Z,13.69
2018-09-22T22:14:01.665Z,13.65
2018-09-22T22:16:29.925Z,13.75
2018-09-22T22:18:58.401Z,13.67
2018-09-22T22:21:26.590Z,13.62
2018-09-22T22:23:55.161Z,13.68
2018-09-22T22:26:23.436Z,13.64
2018-09-22T22:28:51.689Z,13.64
2018-09-22T22:31:19.981Z,13.66
2018-09-22T22:33:50.131Z,13.54
2018-09-22T22:36:18.577Z,13.55
2018-09-22T22:38:46.761Z,13.51
2018-09-22T22:41:14.953Z,13.60
2018-09-22T22:43:43.153Z,13.51
2018-09-22T22:46:11.648Z,13.51
2018-09-22T22:48:39.821Z,13.44
2018-09-22T22:51:08.021Z,13.51
2018-09-22T22:53:36.194Z,13.49
2018-09-22T22:56:04.525Z,13.37
2018-09-22T22:58:32.892Z,13.42
2018-09-22T23:01:01.135Z,13.31
2018-09-22T23:03:29.336Z,13.35
2018-09-22T23:05:58.050Z,13.32
2018-09-22T23:08:26.278Z,13.28
2018-09-22T23:10:54.498Z,13.23
2018-09-22T23:13:22.773Z,13.18
2018-09-22T23:15:50.966Z,13.05
2018-09-22T23:18:19.137Z,13.01
2018-09-22T23:20:47.581Z,13.14
2018-09-22T23:23:15.846Z,13.19
2018-09-22T23:25:44.091Z,13.13
2018-09-22T23:28:12.262Z,12.96
2018-09-22T23:30:40.448Z,12.87
2018-09-22T23:33:08.716Z,12.86
2018-09-22T23:35:36.879Z,12.92
2018-09-22T23:38:05.225Z,12.94
2018-09-22T23:40:33.420Z,12.97
2018-09-22T23:43:01.614Z,12.89
2018-09-22T23:45:29.832Z,12.97
2018-09-22T23:47:58.072Z,13.01
2018-09-22T23:50:26.340Z,13.06
2018-09-22T23:52:54.545Z,13.02
2018-09-22T23:55:22.729Z,12.98
2018-09-22T23:57:50.921Z,12.89
